Aérodrome :
LOGIN :

S'inscrire | Disclaimer

   EN    FR    IT 

 










Légende :    VFR   VFR Marginal   IFR   IFR Intensif   IFR Très Intensif
Visi : 
Plafond : 
>= 8 km
>= 3000ft
5 à 8 km
1000 à 3000 ft
1500m à 5 km
500 à 1000 ft
800 à 1500m
200 à 500 ft
< 800m
< 200 ft
Symboles :   Orages  Brouillard  Fortes neiges  Fortes précipitations  Vent > 20 kt
SIGMETs :   Divers  Orages  Givrage  Turbulence  Onde Orograph.  Cendres Volcan.






- Altitude de l'aérodrome : 14 ft
- Code IATA : BRE


EDDW - Bremen Neuenland

DERNIER METAR :
  • 171150Z 24020KT 9999 BKN038 09/03 Q1009 NOSIG

METARs EXPIRÉS :
  • 171120Z 23023G33KT 9999 BKN037 09/03 Q1009 NOSIG
  • 171050Z 23024KT 9999 SCT035 09/03 Q1009 TEMPO 24020G35KT
  • 171020Z 23022KT 9999 SCT033 09/03 Q1009 NOSIG
  • 170950Z 22020KT 9999 SCT031 09/03 Q1009 TEMPO 24020G35KT
  • 170920Z AUTO 22019KT //// R27/P2000N // ///////// 08/02 Q1009 NOSIG

TAF TAF EDDW
Valide du 17 à 12h jusqu'au 18 à 12h UTC


171100Z 1712/1812 23020G35KT CAVOK
TEMPO 1712/1715 24025G45KT
BECMG 1715/1717 23015G30KT
PROB40
TEMPO 1715/1812 25025G40KT 2500 SHRAGS BKN012CB



MET'MAP, la Météo Aéronautique d'un coup d'oeil ! - Copyright ORBIFLY Décembre 2007 - Disclaimer

ORBIFLY MET'MAP TEAM :

Programmation & Développement : Alexandra Zaïnal
Sur une idée originale de : Baudouin d'Aumeries
Assistance à la programmation : Marc-Olivier Méhu
Soutien technique & logistique : Manuel Goepfert

Contact : metmap@orbifly.com




SOURCES & CREDITS :

   NOAA